Lucky Thirteen — WDD8654 — position and weather

sailwx.info

Track history (hours):
 
Tides and Currents Weather Stations Pressure Air Temp Water Temp Dewpoint Dewpoint Depression Visibility Wind Speed Wind Dir Waves Ship Positions

Lucky Thirteen

Owner: Kristine L Inc., Barnegat Light, NJ. More information available from US FCC via Universal Licensing System and Coast Guard Vessel Documentation Center.

Last reported at 2016-May-26 13:30 UTC. Time now 2016-May-26 14:32 UTC.
Position N 39°45' W 074°07'.

Length 23 m.

Type: Fishing. MMSI: 367300990.

Date/timePositionNaut miles runAvg speedWind from/ knotsBaromVisibWave heightAir tempDewpointWater temp
2016-May-26 13:30N 39°45' W 074°07'0 0.0
2016-May-26 12:27N 39°45' W 074°07'0 0.0
2016-May-26 11:30N 39°45' W 074°07'0 0.0
2016-May-26 10:30N 39°45' W 074°07'0 0.0
2016-May-26 09:33N 39°45' W 074°07'0 0.0
2016-May-26 08:21N 39°45' W 074°07'0 0.0
2016-May-26 07:28N 39°45' W 074°07'5 4.7
2016-May-26 06:29N 39°43' W 074°02'8 8.1
2016-May-26 05:31N 39°35' W 073°59'8 8.1
2016-May-26 04:34N 39°28' W 073°56'9 0.6
2016-May-25 14:10N 39°22' W 073°47'6 8.0
2016-May-25 13:28N 39°27' W 073°50'7 8.0
2016-May-25 12:33N 39°34' W 073°53'8 8.2
2016-May-25 11:32N 39°41' W 073°58'8 8.2
2016-May-25 10:33N 39°46' W 074°06'1 0.8
2016-May-25 09:32N 39°46' W 074°05'7 7.0
2016-May-25 08:34N 39°41' W 073°59'8 8.1
2016-May-25 07:32N 39°33' W 073°55'8 7.8
2016-May-25 06:33N 39°27' W 073°49'10 0.5
2016-May-24 11:04N 39°35' W 073°55'5 8.3
2016-May-24 10:31N 39°39' W 073°58'8 8.2
2016-May-24 09:33N 39°46' W 074°04'2 1.8
2016-May-24 08:30N 39°45' W 074°07'0 0.0
2016-May-24 07:30N 39°45' W 074°07'0 0.0
2016-May-24 06:32N 39°45' W 074°07'0 0.0
2016-May-24 05:26N 39°45' W 074°07'0 0.0
2016-May-24 04:32N 39°45' W 074°07'0 0.0
2016-May-24 02:32N 39°45' W 074°07'0 0.0
2016-May-24 01:32N 39°45' W 074°07'0 0.0
2016-May-24 00:32N 39°45' W 074°07'0 0.0
2016-May-23 23:26N 39°45' W 074°07'0 0.0
2016-May-23 22:26N 39°45' W 074°07'0 0.0
2016-May-23 21:32N 39°45' W 074°07'0 0.0
2016-May-23 20:32N 39°45' W 074°07'0 0.0
2016-May-23 19:26N 39°45' W 074°07'0 0.0
2016-May-23 18:32N 39°45' W 074°07'0 0.0
2016-May-23 17:20N 39°45' W 074°07'0 0.0
2016-May-23 16:20N 39°45' W 074°07'0 0.0
2016-May-23 15:32N 39°45' W 074°07'0 0.0
2016-May-23 14:32N 39°45' W 074°07'0 0.0
2016-May-23 12:32N 39°45' W 074°07'0 0.0
2016-May-23 11:26N 39°45' W 074°07'0 0.0
2016-May-23 10:32N 39°45' W 074°07'0 0.0
2016-May-23 09:32N 39°45' W 074°07'0 0.0
2016-May-23 08:32N 39°45' W 074°07'0 0.0
2016-May-23 07:26N 39°45' W 074°07'0 0.0
2016-May-23 06:32N 39°45' W 074°07'0 0.0
2016-May-23 05:26N 39°45' W 074°07'0 0.0
2016-May-23 04:20N 39°45' W 074°07'0 0.0
2016-May-23 03:20N 39°45' W 074°07'0 0.0
2016-May-23 02:32N 39°45' W 074°07'0 0.0
2016-May-23 01:26N 39°45' W 074°07'0 0.0
2016-May-23 00:20N 39°45' W 074°07'0 0.0
2016-May-22 23:26N 39°45' W 074°07'0 0.0
2016-May-22 22:32N 39°45' W 074°07'0 0.0
2016-May-22 21:26N 39°45' W 074°07'0 0.0
2016-May-22 20:26N 39°45' W 074°07'0 0.0
2016-May-22 19:32N 39°45' W 074°07'0 0.0
2016-May-22 18:26N 39°45' W 074°07'0 0.0
2016-May-22 17:32N 39°45' W 074°07'0 0.0
2016-May-22 16:32N 39°45' W 074°07'0 0.0
2016-May-22 15:32N 39°45' W 074°07'0 0.0
2016-May-22 14:32N 39°45' W 074°07'0 0.0
2016-May-22 13:32N 39°45' W 074°07'0 0.0
2016-May-22 12:32N 39°45' W 074°07'0 0.0
2016-May-22 11:32N 39°45' W 074°07'0 0.0
2016-May-22 10:32N 39°45' W 074°07'0 0.0
2016-May-22 09:32N 39°45' W 074°07'0 0.0
2016-May-22 08:32N 39°45' W 074°07'0 0.0
2016-May-22 07:26N 39°45' W 074°07'0 0.0
2016-May-22 06:32N 39°45' W 074°07'0 0.0
2016-May-22 05:32N 39°45' W 074°07'0 0.0
2016-May-22 04:32N 39°45' W 074°07'0 0.0
2016-May-22 03:20N 39°45' W 074°07'0 0.0
2016-May-22 02:26N 39°45' W 074°07'0 0.0
2016-May-22 01:32N 39°45' W 074°07'0 0.0
2016-May-22 00:20N 39°45' W 074°07'0 0.0
2016-May-21 23:32N 39°45' W 074°07'0 0.0
2016-May-21 22:32N 39°45' W 074°07'0 0.0
2016-May-21 21:32N 39°45' W 074°07'0 0.0
2016-May-21 20:32N 39°45' W 074°07'0 0.0
2016-May-21 19:32N 39°45' W 074°07'0 0.0
2016-May-21 18:32N 39°45' W 074°07'0 0.0
2016-May-21 16:14N 39°45' W 074°07'0 0.0
2016-May-21 15:32N 39°45' W 074°07'0 0.0
2016-May-21 14:32N 39°45' W 074°07'0 0.0
2016-May-21 13:08N 39°45' W 074°07'0 0.0
2016-May-21 12:32N 39°45' W 074°07'0 0.0
2016-May-21 11:32N 39°45' W 074°07'0 0.0
2016-May-21 10:29N 39°45' W 074°07'0 0.0
2016-May-21 09:29N 39°45' W 074°07'0 0.0
2016-May-21 08:32N 39°45' W 074°07'0 0.0
2016-May-21 04:29N 39°45' W 074°07'0 0.0
2016-May-21 03:29N 39°45' W 074°07'0 0.0
2016-May-21 02:20N 39°45' W 074°07'0 0.0
2016-May-21 01:26N 39°45' W 074°07'0 0.0
2016-May-21 00:14N 39°45' W 074°07'0 0.0
2016-May-20 23:32N 39°45' W 074°07'0 0.0
2016-May-20 22:32N 39°45' W 074°07'0 0.0
2016-May-20 21:26N 39°45' W 074°07'0 0.0
2016-May-20 20:32N 39°45' W 074°07'0 0.0
2016-May-20 19:26N 39°45' W 074°07'0 0.0
2016-May-20 18:32N 39°45' W 074°07'0 0.0
2016-May-20 17:32N 39°45' W 074°07'0 0.0
2016-May-20 16:32N 39°45' W 074°07'0 0.0
2016-May-20 15:27N 39°45' W 074°07'0 0.0
2016-May-20 14:33N 39°45' W 074°07'0 0.0
2016-May-20 13:33N 39°45' W 074°07'0 0.0
2016-May-20 12:33N 39°45' W 074°07'0 0.0
2016-May-20 11:27N 39°45' W 074°07'0 0.0
2016-May-20 09:09N 39°45' W 074°07'0 0.0
2016-May-20 08:33N 39°45' W 074°07'0 0.0
2016-May-20 07:33N 39°45' W 074°07'0 0.0
2016-May-20 06:27N 39°45' W 074°07'4 1.9
2016-May-20 04:32N 39°44' W 074°02'8 7.8
2016-May-20 03:33N 39°38' W 073°57'8 7.8
2016-May-20 02:30N 39°30' W 073°53'7 7.7
2016-May-20 01:33N 39°23' W 073°50'8 7.8
2016-May-20 00:32N 39°16' W 073°45'29 2.1
2016-May-19 10:32N 39°43' W 074°01'5 5.0
2016-May-19 09:31N 39°45' W 074°07'1 1.2
2016-May-19 08:33N 39°46' W 074°06'7 7.2
2016-May-19 07:33N 39°41' W 073°58'2 0.1
2016-May-18 10:28N 39°40' W 073°58'7 8.1
2016-May-18 09:33N 39°46' W 074°04'2 2.2
2016-May-18 08:27N 39°45' W 074°07'0 0.0
2016-May-18 07:33N 39°45' W 074°07'0 0.0
2016-May-18 06:27N 39°45' W 074°07'0 0.0
2016-May-18 05:33N 39°45' W 074°07'0 0.0
2016-May-18 04:33N 39°45' W 074°07'0 0.0
2016-May-18 03:33N 39°45' W 074°07'0 0.0
2016-May-18 02:33N 39°45' W 074°07'0 0.0
2016-May-18 01:33N 39°45' W 074°07'0 0.0
2016-May-18 00:22N 39°45' W 074°07'0 0.0
2016-May-17 23:31N 39°45' W 074°07'0 0.0
2016-May-17 22:30N 39°45' W 074°07'0 0.0
2016-May-17 21:30N 39°45' W 074°07'0 0.0
2016-May-17 20:18N 39°45' W 074°07'0 0.0
2016-May-17 19:30N 39°45' W 074°07'0 0.0
2016-May-17 18:12N 39°45' W 074°07'0 0.0
2016-May-17 17:30N 39°45' W 074°07'0 0.0
2016-May-17 16:30N 39°45' W 074°07'0 0.0
2016-May-17 15:26N 39°45' W 074°07'3 3.7
2016-May-17 14:30N 39°44' W 074°03'8 8.3
2016-May-17 13:33N 39°38' W 073°56'3 0.1
2016-May-16 14:19N 39°40' W 073°54'7 8.6
2016-May-16 13:33N 39°45' W 074°00'  
Track history (hours):
 
Tides and Currents Weather Stations Pressure Air Temp Water Temp Dewpoint Dewpoint Depression Visibility Wind Speed Wind Dir Waves Ship Positions

Lucky Thirteen

Owner: Kristine L Inc., Barnegat Light, NJ. More information available from US FCC via Universal Licensing System and Coast Guard Vessel Documentation Center.

Last reported at 2016-May-26 13:30 UTC. Time now 2016-May-26 14:32 UTC.
Position N 39°45' W 074°07'.

Length 23 m.

Type: Fishing. MMSI: 367300990.

Date/timePositionNaut miles runAvg speedWind from/ knotsBaromVisibWave heightAir tempDewpointWater temp
2016-May-26 13:30N 39°45' W 074°07'0 0.0
2016-May-26 12:27N 39°45' W 074°07'0 0.0
2016-May-26 11:30N 39°45' W 074°07'0 0.0
2016-May-26 10:30N 39°45' W 074°07'0 0.0
2016-May-26 09:33N 39°45' W 074°07'0 0.0
2016-May-26 08:21N 39°45' W 074°07'0 0.0
2016-May-26 07:28N 39°45' W 074°07'5 4.7
2016-May-26 06:29N 39°43' W 074°02'8 8.1
2016-May-26 05:31N 39°35' W 073°59'8 8.1
2016-May-26 04:34N 39°28' W 073°56'9 0.6
2016-May-25 14:10N 39°22' W 073°47'6 8.0
2016-May-25 13:28N 39°27' W 073°50'7 8.0
2016-May-25 12:33N 39°34' W 073°53'8 8.2
2016-May-25 11:32N 39°41' W 073°58'8 8.2
2016-May-25 10:33N 39°46' W 074°06'1 0.8
2016-May-25 09:32N 39°46' W 074°05'7 7.0
2016-May-25 08:34N 39°41' W 073°59'8 8.1
2016-May-25 07:32N 39°33' W 073°55'8 7.8
2016-May-25 06:33N 39°27' W 073°49'10 0.5
2016-May-24 11:04N 39°35' W 073°55'5 8.3
2016-May-24 10:31N 39°39' W 073°58'8 8.2
2016-May-24 09:33N 39°46' W 074°04'2 1.8
2016-May-24 08:30N 39°45' W 074°07'0 0.0
2016-May-24 07:30N 39°45' W 074°07'0 0.0
2016-May-24 06:32N 39°45' W 074°07'0 0.0
2016-May-24 05:26N 39°45' W 074°07'0 0.0
2016-May-24 04:32N 39°45' W 074°07'0 0.0
2016-May-24 02:32N 39°45' W 074°07'0 0.0
2016-May-24 01:32N 39°45' W 074°07'0 0.0
2016-May-24 00:32N 39°45' W 074°07'0 0.0
2016-May-23 23:26N 39°45' W 074°07'0 0.0
2016-May-23 22:26N 39°45' W 074°07'0 0.0
2016-May-23 21:32N 39°45' W 074°07'0 0.0
2016-May-23 20:32N 39°45' W 074°07'0 0.0
2016-May-23 19:26N 39°45' W 074°07'0 0.0
2016-May-23 18:32N 39°45' W 074°07'0 0.0
2016-May-23 17:20N 39°45' W 074°07'0 0.0
2016-May-23 16:20N 39°45' W 074°07'0 0.0
2016-May-23 15:32N 39°45' W 074°07'0 0.0
2016-May-23 14:32N 39°45' W 074°07'0 0.0
2016-May-23 12:32N 39°45' W 074°07'0 0.0
2016-May-23 11:26N 39°45' W 074°07'0 0.0
2016-May-23 10:32N 39°45' W 074°07'0 0.0
2016-May-23 09:32N 39°45' W 074°07'0 0.0
2016-May-23 08:32N 39°45' W 074°07'0 0.0
2016-May-23 07:26N 39°45' W 074°07'0 0.0
2016-May-23 06:32N 39°45' W 074°07'0 0.0
2016-May-23 05:26N 39°45' W 074°07'0 0.0
2016-May-23 04:20N 39°45' W 074°07'0 0.0
2016-May-23 03:20N 39°45' W 074°07'0 0.0
2016-May-23 02:32N 39°45' W 074°07'0 0.0
2016-May-23 01:26N 39°45' W 074°07'0 0.0
2016-May-23 00:20N 39°45' W 074°07'0 0.0
2016-May-22 23:26N 39°45' W 074°07'0 0.0
2016-May-22 22:32N 39°45' W 074°07'0 0.0
2016-May-22 21:26N 39°45' W 074°07'0 0.0
2016-May-22 20:26N 39°45' W 074°07'0 0.0
2016-May-22 19:32N 39°45' W 074°07'0 0.0
2016-May-22 18:26N 39°45' W 074°07'0 0.0
2016-May-22 17:32N 39°45' W 074°07'0 0.0
2016-May-22 16:32N 39°45' W 074°07'0 0.0
2016-May-22 15:32N 39°45' W 074°07'0 0.0
2016-May-22 14:32N 39°45' W 074°07'0 0.0
2016-May-22 13:32N 39°45' W 074°07'0 0.0
2016-May-22 12:32N 39°45' W 074°07'0 0.0
2016-May-22 11:32N 39°45' W 074°07'0 0.0
2016-May-22 10:32N 39°45' W 074°07'0 0.0
2016-May-22 09:32N 39°45' W 074°07'0 0.0
2016-May-22 08:32N 39°45' W 074°07'0 0.0
2016-May-22 07:26N 39°45' W 074°07'0 0.0
2016-May-22 06:32N 39°45' W 074°07'0 0.0
2016-May-22 05:32N 39°45' W 074°07'0 0.0
2016-May-22 04:32N 39°45' W 074°07'0 0.0
2016-May-22 03:20N 39°45' W 074°07'0 0.0
2016-May-22 02:26N 39°45' W 074°07'0 0.0
2016-May-22 01:32N 39°45' W 074°07'0 0.0
2016-May-22 00:20N 39°45' W 074°07'0 0.0
2016-May-21 23:32N 39°45' W 074°07'0 0.0
2016-May-21 22:32N 39°45' W 074°07'0 0.0
2016-May-21 21:32N 39°45' W 074°07'0 0.0
2016-May-21 20:32N 39°45' W 074°07'0 0.0
2016-May-21 19:32N 39°45' W 074°07'0 0.0
2016-May-21 18:32N 39°45' W 074°07'0 0.0
2016-May-21 16:14N 39°45' W 074°07'0 0.0
2016-May-21 15:32N 39°45' W 074°07'0 0.0
2016-May-21 14:32N 39°45' W 074°07'0 0.0
2016-May-21 13:08N 39°45' W 074°07'0 0.0
2016-May-21 12:32N 39°45' W 074°07'0 0.0
2016-May-21 11:32N 39°45' W 074°07'0 0.0
2016-May-21 10:29N 39°45' W 074°07'0 0.0
2016-May-21 09:29N 39°45' W 074°07'0 0.0
2016-May-21 08:32N 39°45' W 074°07'0 0.0
2016-May-21 04:29N 39°45' W 074°07'0 0.0
2016-May-21 03:29N 39°45' W 074°07'0 0.0
2016-May-21 02:20N 39°45' W 074°07'0 0.0
2016-May-21 01:26N 39°45' W 074°07'0 0.0
2016-May-21 00:14N 39°45' W 074°07'0 0.0
2016-May-20 23:32N 39°45' W 074°07'0 0.0
2016-May-20 22:32N 39°45' W 074°07'0 0.0
2016-May-20 21:26N 39°45' W 074°07'0 0.0
2016-May-20 20:32N 39°45' W 074°07'0 0.0
2016-May-20 19:26N 39°45' W 074°07'0 0.0
2016-May-20 18:32N 39°45' W 074°07'0 0.0
2016-May-20 17:32N 39°45' W 074°07'0 0.0
2016-May-20 16:32N 39°45' W 074°07'0 0.0
2016-May-20 15:27N 39°45' W 074°07'0 0.0
2016-May-20 14:33N 39°45' W 074°07'0 0.0
2016-May-20 13:33N 39°45' W 074°07'0 0.0
2016-May-20 12:33N 39°45' W 074°07'0 0.0
2016-May-20 11:27N 39°45' W 074°07'0 0.0
2016-May-20 09:09N 39°45' W 074°07'0 0.0
2016-May-20 08:33N 39°45' W 074°07'0 0.0
2016-May-20 07:33N 39°45' W 074°07'0 0.0
2016-May-20 06:27N 39°45' W 074°07'4 1.9
2016-May-20 04:32N 39°44' W 074°02'8 7.8
2016-May-20 03:33N 39°38' W 073°57'8 7.8
2016-May-20 02:30N 39°30' W 073°53'7 7.7
2016-May-20 01:33N 39°23' W 073°50'8 7.8
2016-May-20 00:32N 39°16' W 073°45'29 2.1
2016-May-19 10:32N 39°43' W 074°01'5 5.0
2016-May-19 09:31N 39°45' W 074°07'1 1.2
2016-May-19 08:33N 39°46' W 074°06'7 7.2
2016-May-19 07:33N 39°41' W 073°58'2 0.1
2016-May-18 10:28N 39°40' W 073°58'7 8.1
2016-May-18 09:33N 39°46' W 074°04'2 2.2
2016-May-18 08:27N 39°45' W 074°07'0 0.0
2016-May-18 07:33N 39°45' W 074°07'0 0.0
2016-May-18 06:27N 39°45' W 074°07'0 0.0
2016-May-18 05:33N 39°45' W 074°07'0 0.0
2016-May-18 04:33N 39°45' W 074°07'0 0.0
2016-May-18 03:33N 39°45' W 074°07'0 0.0
2016-May-18 02:33N 39°45' W 074°07'0 0.0
2016-May-18 01:33N 39°45' W 074°07'0 0.0
2016-May-18 00:22N 39°45' W 074°07'0 0.0
2016-May-17 23:31N 39°45' W 074°07'0 0.0
2016-May-17 22:30N 39°45' W 074°07'0 0.0
2016-May-17 21:30N 39°45' W 074°07'0 0.0
2016-May-17 20:18N 39°45' W 074°07'0 0.0
2016-May-17 19:30N 39°45' W 074°07'0 0.0
2016-May-17 18:12N 39°45' W 074°07'0 0.0
2016-May-17 17:30N 39°45' W 074°07'0 0.0
2016-May-17 16:30N 39°45' W 074°07'0 0.0
2016-May-17 15:26N 39°45' W 074°07'3 3.7
2016-May-17 14:30N 39°44' W 074°03'8 8.3
2016-May-17 13:33N 39°38' W 073°56'3 0.1
2016-May-16 14:19N 39°40' W 073°54'7 8.6
2016-May-16 13:33N 39°45' W 074°00'  

Dump ship's entire track history